createdAt,value
2022-10-29T00:01:11.397Z,97770.69
2022-10-29T00:03:39.641Z,97771.97
2022-10-29T00:06:11.904Z,97771.28
2022-10-29T00:08:41.059Z,97773.78
2022-10-29T00:11:12.151Z,97772.97
2022-10-29T00:13:42.536Z,97777.94
2022-10-29T00:16:16.378Z,97778.97
2022-10-29T00:18:45.452Z,97784.19
2022-10-29T00:21:17.027Z,97795.06
2022-10-29T00:23:45.254Z,97798.88
2022-10-29T00:26:13.733Z,97784.31
2022-10-29T00:28:43.369Z,97791.81
2022-10-29T00:31:15.462Z,97788.53
2022-10-29T00:33:44.194Z,97793.22
2022-10-29T00:36:16.067Z,97778.97
2022-10-29T00:38:44.555Z,97782.91
2022-10-29T00:41:16.710Z,97781.25
2022-10-29T00:43:50.834Z,97783.81
2022-10-29T00:46:26.165Z,97777.31
2022-10-29T00:48:56.747Z,97780.59
2022-10-29T00:51:26.893Z,97793.28
2022-10-29T00:53:59.073Z,97793.56
2022-10-29T00:56:30.514Z,97788.91
2022-10-29T00:59:00.322Z,97791.34
2022-10-29T01:01:28.901Z,97793.53
2022-10-29T01:04:00.122Z,97796.88
2022-10-29T01:06:29.559Z,97796.16
2022-10-29T01:08:57.882Z,97791.09
2022-10-29T01:11:36.973Z,97799.34
2022-10-29T01:14:19.334Z,97801.50
2022-10-29T01:16:54.089Z,97799.59
2022-10-29T01:19:50.843Z,97794.47
2022-10-29T01:22:25.817Z,97790.22
2022-10-29T01:25:17.701Z,97792.47
2022-10-29T01:27:58.780Z,97780.84
2022-10-29T01:31:17.296Z,97780.75
2022-10-29T01:33:54.796Z,97789.75
2022-10-29T01:36:32.616Z,97774.47
2022-10-29T01:39:10.049Z,97772.47
2022-10-29T01:41:51.662Z,97762.22
2022-10-29T01:44:31.431Z,97758.03
2022-10-29T01:47:03.322Z,97761.03
2022-10-29T01:49:38.809Z,97762.38
2022-10-29T01:52:10.647Z,97758.88
2022-10-29T01:54:42.637Z,97752.59
2022-10-29T01:57:35.906Z,97753.94
2022-10-29T02:00:08.906Z,97737.16
2022-10-29T02:03:01.443Z,97754.78
2022-10-29T02:05:35.939Z,97743.66
2022-10-29T02:08:22.375Z,97747.25
2022-10-29T02:10:59.715Z,97740.16
2022-10-29T02:13:39.010Z,97754.25
2022-10-29T02:16:09.889Z,97753.63
2022-10-29T02:18:43.639Z,97743.03
2022-10-29T02:21:16.227Z,97748.91
2022-10-29T02:23:44.574Z,97748.88
2022-10-29T02:26:12.955Z,97752.94
2022-10-29T02:28:41.195Z,97750.63
2022-10-29T02:31:10.185Z,97748.75
2022-10-29T02:33:38.890Z,97749.31
2022-10-29T02:36:09.133Z,97745.66
2022-10-29T02:38:39.749Z,97753.00
2022-10-29T02:41:08.444Z,97733.28
2022-10-29T02:43:37.042Z,97727.84
2022-10-29T02:46:13.057Z,97721.78
2022-10-29T02:48:41.359Z,97742.50
2022-10-29T02:51:09.833Z,97734.06
2022-10-29T02:53:39.896Z,97740.72
2022-10-29T02:56:08.826Z,97729.75
2022-10-29T02:58:38.097Z,97737.94
2022-10-29T03:01:06.975Z,97743.38
2022-10-29T03:03:35.191Z,97736.63
2022-10-29T03:06:03.450Z,97728.09
2022-10-29T03:08:31.598Z,97734.41
2022-10-29T03:11:01.119Z,97725.94
2022-10-29T03:13:29.353Z,97726.03
2022-10-29T03:15:57.530Z,97725.41
2022-10-29T03:18:25.755Z,97725.19
2022-10-29T03:20:54.020Z,97728.38
2022-10-29T03:23:22.757Z,97724.16
2022-10-29T03:25:55.761Z,97720.28
2022-10-29T03:28:30.171Z,97733.91
2022-10-29T03:30:58.864Z,97732.91
2022-10-29T03:33:27.653Z,97741.69
2022-10-29T03:35:59.957Z,97740.47
2022-10-29T03:38:28.696Z,97732.13
2022-10-29T03:40:57.179Z,97735.03
2022-10-29T03:43:27.102Z,97727.53
2022-10-29T03:45:57.440Z,97723.88
2022-10-29T03:48:26.927Z,97725.09
2022-10-29T03:51:00.136Z,97725.53
2022-10-29T03:53:29.200Z,97716.78
2022-10-29T03:55:58.735Z,97715.16
2022-10-29T03:58:29.019Z,97713.81
2022-10-29T04:00:59.541Z,97714.91
2022-10-29T04:03:29.522Z,97728.41
2022-10-29T04:05:58.976Z,97711.94
2022-10-29T04:08:27.159Z,97712.81
2022-10-29T04:10:55.557Z,97718.13
2022-10-29T04:13:23.720Z,97723.63
2022-10-29T04:15:56.763Z,97718.91
2022-10-29T04:18:25.703Z,97719.38
2022-10-29T04:29:19.438Z,97722.53
2022-10-29T04:31:48.993Z,97727.38
2022-10-29T04:34:17.247Z,97718.38
2022-10-29T04:36:45.426Z,97717.03
2022-10-29T04:39:13.706Z,97724.25
2022-10-29T04:41:41.870Z,97731.16
2022-10-29T04:44:10.408Z,97726.72
2022-10-29T04:46:38.557Z,97713.44
2022-10-29T04:49:08.183Z,97729.19
2022-10-29T04:51:36.506Z,97727.94
2022-10-29T04:54:04.975Z,97726.19
2022-10-29T04:56:33.177Z,97727.94
2022-10-29T04:59:01.363Z,97732.72
2022-10-29T05:01:29.609Z,97731.59
2022-10-29T05:03:59.996Z,97740.25
2022-10-29T05:06:29.923Z,97732.13
2022-10-29T05:08:58.103Z,97730.69
2022-10-29T05:11:26.278Z,97731.78
2022-10-29T05:13:54.614Z,97728.72
2022-10-29T05:16:22.799Z,97717.97
2022-10-29T05:18:51.001Z,97738.22
2022-10-29T05:21:19.218Z,97728.66
2022-10-29T05:23:48.746Z,97735.94
2022-10-29T05:26:16.930Z,97731.28
2022-10-29T05:28:45.114Z,97718.28
2022-10-29T05:31:13.269Z,97732.16
2022-10-29T05:33:41.455Z,97726.66
2022-10-29T05:36:09.852Z,97726.88
2022-10-29T05:38:38.312Z,97733.28
2022-10-29T05:41:08.372Z,97729.47
2022-10-29T05:43:36.585Z,97735.06
2022-10-29T05:46:05.340Z,97734.41
2022-10-29T05:48:33.524Z,97727.59
2022-10-29T05:51:01.940Z,97726.78
2022-10-29T05:53:30.367Z,97727.53
2022-10-29T05:56:00.553Z,97726.88
2022-10-29T05:58:30.131Z,97724.88
2022-10-29T06:00:58.304Z,97727.53
2022-10-29T06:03:26.487Z,97730.25
2022-10-29T06:05:54.665Z,97728.63
2022-10-29T06:08:22.835Z,97728.25
2022-10-29T06:10:51.321Z,97734.47
2022-10-29T06:13:21.533Z,97742.09
2022-10-29T06:15:52.118Z,97733.34
2022-10-29T06:18:20.287Z,97731.94
2022-10-29T06:20:48.502Z,97747.88
2022-10-29T06:23:16.670Z,97743.78
2022-10-29T06:25:44.840Z,97735.19
2022-10-29T06:28:15.313Z,97744.16
2022-10-29T06:30:50.349Z,97737.09
2022-10-29T06:33:19.698Z,97734.59
2022-10-29T06:35:48.276Z,97738.00
2022-10-29T06:38:16.894Z,97740.56
2022-10-29T06:40:52.710Z,97740.78
2022-10-29T06:43:21.038Z,97733.91
2022-10-29T06:45:51.538Z,97733.88
2022-10-29T06:48:22.350Z,97731.03
2022-10-29T06:50:51.343Z,97731.34
2022-10-29T06:53:20.087Z,97735.56
2022-10-29T06:55:48.357Z,97728.06
2022-10-29T06:58:19.165Z,97741.16
2022-10-29T07:00:48.312Z,97743.41
2022-10-29T07:03:20.358Z,97745.31
2022-10-29T07:05:56.977Z,97741.41
2022-10-29T07:08:25.558Z,97743.66
2022-10-29T07:10:54.971Z,97737.03
2022-10-29T07:13:23.625Z,97749.41
2022-10-29T07:15:51.957Z,97749.22
2022-10-29T07:18:21.589Z,97752.19
2022-10-29T07:20:49.791Z,97750.44
2022-10-29T07:23:18.087Z,97750.84
2022-10-29T07:25:46.285Z,97748.69
2022-10-29T07:28:17.491Z,97762.06
2022-10-29T07:30:46.471Z,97753.72
2022-10-29T07:33:14.715Z,97759.44
2022-10-29T07:35:44.988Z,97764.16
2022-10-29T07:38:14.214Z,97763.25
2022-10-29T07:40:49.434Z,97745.94
2022-10-29T07:43:18.990Z,97752.69
2022-10-29T07:45:49.852Z,97756.91
2022-10-29T07:48:18.831Z,97759.63
2022-10-29T07:50:48.738Z,97754.16
2022-10-29T07:53:17.316Z,97756.16
2022-10-29T07:55:45.538Z,97759.28
2022-10-29T07:58:14.242Z,97760.09
2022-10-29T08:00:42.903Z,97760.69
2022-10-29T08:03:13.702Z,97761.31
2022-10-29T08:05:43.008Z,97755.84
2022-10-29T08:08:12.882Z,97755.38
2022-10-29T08:10:41.089Z,97760.44
2022-10-29T08:13:09.397Z,97767.66
2022-10-29T08:15:37.654Z,97763.91
2022-10-29T08:18:13.421Z,97759.47
2022-10-29T08:20:41.689Z,97758.63
2022-10-29T08:23:09.973Z,97758.63
2022-10-29T08:25:41.566Z,97749.81
2022-10-29T08:28:12.857Z,97756.41
2022-10-29T08:30:41.580Z,97746.16
2022-10-29T08:33:11.237Z,97746.66
2022-10-29T08:35:39.756Z,97744.53
2022-10-29T08:38:07.968Z,97747.84
2022-10-29T08:40:51.709Z,97749.47
2022-10-29T08:43:47.189Z,97752.25
2022-10-29T08:46:22.531Z,97756.91
2022-10-29T08:48:55.110Z,97757.44
2022-10-29T08:51:28.053Z,97749.47
2022-10-29T08:56:52.794Z,97745.50
2022-10-29T08:59:23.823Z,97747.84
2022-10-29T09:01:53.765Z,97748.16
2022-10-29T09:04:28.751Z,97736.13
2022-10-29T09:07:22.257Z,97735.84
2022-10-29T09:09:58.350Z,97749.53
2022-10-29T09:12:51.703Z,97742.56
2022-10-29T09:15:42.285Z,97741.09
2022-10-29T09:18:30.561Z,97739.19
2022-10-29T09:21:09.432Z,97731.53
2022-10-29T09:23:58.896Z,97742.38
2022-10-29T09:26:32.802Z,97735.06
2022-10-29T09:29:24.818Z,97734.66
2022-10-29T09:31:57.475Z,97729.41
2022-10-29T09:34:31.895Z,97741.38
2022-10-29T09:37:02.097Z,97728.41
2022-10-29T09:39:36.279Z,97730.09
2022-10-29T09:42:13.394Z,97734.38
2022-10-29T09:44:51.186Z,97725.81
2022-10-29T09:47:35.843Z,97722.44
2022-10-29T09:50:15.590Z,97723.28
2022-10-29T09:52:46.034Z,97723.09
2022-10-29T09:55:23.561Z,97722.16
2022-10-29T09:58:01.124Z,97725.84
2022-10-29T10:00:34.493Z,97714.22
2022-10-29T10:03:09.302Z,97723.28
2022-10-29T10:05:58.366Z,97722.75
2022-10-29T10:08:26.869Z,97719.78
2022-10-29T10:10:58.929Z,97713.84
2022-10-29T10:13:30.527Z,97713.47
2022-10-29T10:16:02.052Z,97703.16
2022-10-29T10:18:42.142Z,97708.50
2022-10-29T10:21:12.597Z,97701.38
2022-10-29T10:23:45.062Z,97695.66
2022-10-29T10:26:36.963Z,97698.88
2022-10-29T10:29:17.423Z,97698.59
2022-10-29T10:31:48.646Z,97694.09
2022-10-29T10:34:23.044Z,97687.75
2022-10-29T10:36:55.831Z,97688.31
2022-10-29T10:39:30.754Z,97690.63
2022-10-29T10:42:01.852Z,97682.97
2022-10-29T10:44:30.544Z,97688.38
2022-10-29T10:47:07.939Z,97677.69
2022-10-29T10:49:38.275Z,97673.69
2022-10-29T10:52:16.508Z,97666.38
2022-10-29T10:54:48.363Z,97654.75
2022-10-29T10:57:24.411Z,97653.09
2022-10-29T11:00:06.358Z,97645.41
2022-10-29T11:02:49.650Z,97631.97
2022-10-29T11:05:20.677Z,97635.22
2022-10-29T11:08:05.258Z,97638.84
2022-10-29T11:10:40.903Z,97624.06
2022-10-29T11:13:17.468Z,97627.00
2022-10-29T11:15:53.319Z,97607.66
2022-10-29T11:18:31.033Z,97621.09
2022-10-29T11:21:13.353Z,97613.25
2022-10-29T11:23:52.611Z,97601.97
2022-10-29T11:26:31.383Z,97606.34
2022-10-29T11:29:06.377Z,97607.09
2022-10-29T11:31:45.363Z,97603.66
2022-10-29T11:34:22.326Z,97595.53
2022-10-29T11:36:58.091Z,97593.81
2022-10-29T11:39:33.833Z,97590.25
2022-10-29T11:42:03.063Z,97584.72
2022-10-29T11:44:38.775Z,97577.72
2022-10-29T11:47:23.441Z,97585.22
2022-10-29T11:50:11.261Z,97584.03
2022-10-29T11:52:47.945Z,97584.84
2022-10-29T11:55:30.395Z,97573.13
2022-10-29T11:58:05.117Z,97581.84
2022-10-29T12:00:56.950Z,97579.59
2022-10-29T12:03:50.053Z,97565.88
2022-10-29T12:06:28.347Z,97567.22
2022-10-29T12:09:15.800Z,97554.22
2022-10-29T12:11:52.384Z,97552.44
2022-10-29T12:14:33.262Z,97558.28
2022-10-29T12:17:13.018Z,97548.44
2022-10-29T12:19:50.689Z,97550.91
2022-10-29T12:22:35.699Z,97537.41
2022-10-29T12:25:31.760Z,97537.78
2022-10-29T12:28:19.069Z,97530.31
2022-10-29T12:31:07.792Z,97533.19
2022-10-29T12:33:46.076Z,97527.16
2022-10-29T12:36:23.686Z,97538.34
2022-10-29T12:38:57.193Z,97523.47
2022-10-29T12:41:28.386Z,97524.84
2022-10-29T12:44:13.886Z,97528.06
2022-10-29T12:46:48.292Z,97523.56
2022-10-29T12:49:23.716Z,97520.31
2022-10-29T12:54:38.339Z,97519.44
2022-10-29T12:57:21.185Z,97510.94
2022-10-29T12:59:49.440Z,97516.09
2022-10-29T13:02:30.208Z,97507.13
2022-10-29T13:05:48.373Z,97511.00
2022-10-29T13:08:35.084Z,97512.53
2022-10-29T13:11:24.539Z,97506.34
2022-10-29T13:13:59.933Z,97513.47
2022-10-29T13:16:31.634Z,97507.78
2022-10-29T13:19:19.828Z,97512.34
2022-10-29T13:22:00.211Z,97507.09
2022-10-29T13:24:29.552Z,97498.50
2022-10-29T13:27:34.123Z,97506.03
2022-10-29T13:30:25.454Z,97505.03
2022-10-29T13:32:54.800Z,97501.28
2022-10-29T13:35:53.779Z,97503.69
2022-10-29T13:38:52.066Z,97500.16
2022-10-29T13:41:40.149Z,97498.88
2022-10-29T13:44:13.284Z,97495.69
2022-10-29T13:46:48.208Z,97482.53
2022-10-29T13:49:24.717Z,97479.41
2022-10-29T13:52:01.321Z,97479.00
2022-10-29T13:54:43.291Z,97483.44
2022-10-29T13:57:22.158Z,97474.56
2022-10-29T13:59:56.898Z,97477.53
2022-10-29T14:02:45.165Z,97468.56
2022-10-29T14:05:20.088Z,97465.31
2022-10-29T14:07:55.946Z,97466.25
2022-10-29T14:10:28.108Z,97456.59
2022-10-29T14:13:01.517Z,97463.41
2022-10-29T14:15:31.206Z,97461.50
2022-10-29T14:17:59.381Z,97463.91
2022-10-29T14:20:30.108Z,97466.00
2022-10-29T14:22:58.754Z,97456.19
2022-10-29T14:25:34.493Z,97474.22
2022-10-29T14:28:22.174Z,97458.56
2022-10-29T14:31:04.424Z,97467.66
2022-10-29T14:33:35.271Z,97461.63
2022-10-29T14:36:14.003Z,97459.94
2022-10-29T14:38:47.996Z,97465.22
2022-10-29T14:41:17.527Z,97473.25
2022-10-29T14:43:53.030Z,97467.38
2022-10-29T14:46:28.022Z,97456.88
2022-10-29T14:49:02.561Z,97461.06
2022-10-29T14:51:44.372Z,97464.59
2022-10-29T14:54:21.804Z,97466.09
2022-10-29T14:56:54.001Z,97462.13
2022-10-29T14:59:28.232Z,97457.72
2022-10-29T15:02:11.248Z,97455.34
2022-10-29T15:04:56.057Z,97458.31
2022-10-29T15:07:34.269Z,97455.44
2022-10-29T15:10:23.231Z,97459.25
2022-10-29T15:12:53.010Z,97455.56
2022-10-29T15:15:28.234Z,97452.72
2022-10-29T15:18:02.459Z,97455.91
2022-10-29T15:20:37.191Z,97459.75
2022-10-29T15:23:06.167Z,97455.28
2022-10-29T15:25:38.224Z,97453.94
2022-10-29T15:28:11.380Z,97455.44
2022-10-29T15:30:40.311Z,97449.59
2022-10-29T15:33:19.953Z,97448.63
2022-10-29T15:35:53.548Z,97447.69
2022-10-29T15:39:10.735Z,97440.84
2022-10-29T15:41:46.062Z,97438.25
2022-10-29T15:44:37.662Z,97446.56
2022-10-29T15:47:23.586Z,97439.19
2022-10-29T15:49:53.131Z,97447.69
2022-10-29T15:52:23.374Z,97442.53
2022-10-29T15:54:51.990Z,97452.16
2022-10-29T15:57:20.188Z,97447.69
2022-10-29T15:59:48.377Z,97451.06
2022-10-29T16:02:18.472Z,97449.34
2022-10-29T16:04:46.787Z,97445.72
2022-10-29T16:07:18.514Z,97449.00
2022-10-29T16:09:50.962Z,97447.84
2022-10-29T16:12:19.745Z,97449.53
2022-10-29T16:14:47.914Z,97446.59
2022-10-29T16:17:18.638Z,97442.38
2022-10-29T16:19:47.029Z,97439.59
2022-10-29T16:22:21.691Z,97447.97
2022-10-29T16:24:50.050Z,97435.34
2022-10-29T16:27:20.603Z,97434.56
2022-10-29T16:29:49.631Z,97445.47
2022-10-29T16:32:20.393Z,97441.81
2022-10-29T16:34:48.719Z,97447.47
2022-10-29T16:37:20.565Z,97451.94
2022-10-29T16:39:48.799Z,97448.56
2022-10-29T16:42:30.966Z,97452.69
2022-10-29T16:44:59.269Z,97464.63
2022-10-29T16:47:27.682Z,97452.38
2022-10-29T16:49:56.182Z,97458.88
2022-10-29T16:52:29.543Z,97456.50
2022-10-29T16:54:58.502Z,97461.50
2022-10-29T16:57:26.927Z,97459.50
2022-10-29T16:59:55.144Z,97453.53
2022-10-29T17:02:23.317Z,97451.06
2022-10-29T17:04:51.502Z,97456.69
2022-10-29T17:07:19.705Z,97456.50
2022-10-29T17:09:49.302Z,97459.47
2022-10-29T17:12:17.533Z,97454.53
2022-10-29T17:14:45.803Z,97453.75
2022-10-29T17:17:13.975Z,97450.41
2022-10-29T17:19:42.493Z,97457.19
2022-10-29T17:22:14.286Z,97462.19
2022-10-29T17:24:42.693Z,97462.81
2022-10-29T17:27:13.134Z,97451.56
2022-10-29T17:29:41.615Z,97461.09
2022-10-29T17:32:10.296Z,97460.44
2022-10-29T17:34:38.468Z,97467.22
2022-10-29T17:37:07.608Z,97472.88
2022-10-29T17:39:35.918Z,97473.44
2022-10-29T17:42:04.179Z,97483.66
2022-10-29T17:44:36.180Z,97480.41
2022-10-29T17:47:04.470Z,97482.16
2022-10-29T17:49:32.711Z,97487.66
2022-10-29T17:52:01.934Z,97490.81
2022-10-29T17:54:30.213Z,97486.16
2022-10-29T17:56:58.498Z,97488.69
2022-10-29T17:59:26.699Z,97493.78
2022-10-29T18:01:56.393Z,97490.84
2022-10-29T18:04:25.051Z,97493.97
2022-10-29T18:06:53.583Z,97494.47
2022-10-29T18:09:21.887Z,97494.38
2022-10-29T18:11:50.863Z,97497.91
2022-10-29T18:14:19.087Z,97491.28
2022-10-29T18:16:47.263Z,97495.03
2022-10-29T18:19:17.304Z,97492.78
2022-10-29T18:21:45.654Z,97497.38
2022-10-29T18:24:13.863Z,97498.00
2022-10-29T18:26:42.128Z,97499.47
2022-10-29T18:29:13.106Z,97496.50
2022-10-29T18:31:44.901Z,97505.66
2022-10-29T18:34:15.126Z,97504.03
2022-10-29T18:36:47.410Z,97511.41
2022-10-29T18:39:15.885Z,97502.56
2022-10-29T18:41:44.407Z,97512.31
2022-10-29T18:44:12.688Z,97510.94
2022-10-29T18:46:41.415Z,97506.13
2022-10-29T18:49:12.943Z,97507.91
2022-10-29T18:51:41.330Z,97494.59
2022-10-29T18:54:14.501Z,97490.69
2022-10-29T18:56:43.054Z,97496.50
2022-10-29T18:59:12.701Z,97495.59
2022-10-29T19:01:41.875Z,97491.81
2022-10-29T19:04:15.778Z,97492.75
2022-10-29T19:06:44.434Z,97490.38
2022-10-29T19:09:14.399Z,97493.84
2022-10-29T19:11:42.822Z,97495.44
2022-10-29T19:14:14.316Z,97500.94
2022-10-29T19:16:42.678Z,97499.72
2022-10-29T19:19:16.038Z,97499.25
2022-10-29T19:21:46.722Z,97485.06
2022-10-29T19:24:16.495Z,97488.13
2022-10-29T19:26:45.143Z,97493.75
2022-10-29T19:29:13.917Z,97495.00
2022-10-29T19:31:42.478Z,97490.47
2022-10-29T19:34:11.137Z,97489.47
2022-10-29T19:36:40.224Z,97491.41
2022-10-29T19:39:08.929Z,97496.59
2022-10-29T19:41:38.547Z,97498.78
2022-10-29T19:44:07.059Z,97495.31
2022-10-29T19:46:35.484Z,97486.16
2022-10-29T19:49:03.701Z,97494.56
2022-10-29T19:51:31.979Z,97494.31
2022-10-29T19:54:02.186Z,97490.53
2022-10-29T19:56:30.576Z,97492.13
2022-10-29T19:59:00.291Z,97500.84
2022-10-29T20:01:28.616Z,97499.31
2022-10-29T20:03:58.310Z,97502.66
2022-10-29T20:06:26.570Z,97483.69
2022-10-29T20:08:54.966Z,97495.41
2022-10-29T20:11:23.463Z,97491.63
2022-10-29T20:13:53.166Z,97499.94
2022-10-29T20:16:23.347Z,97499.19
2022-10-29T20:18:51.798Z,97495.09
2022-10-29T20:21:20.058Z,97502.88
2022-10-29T20:23:48.607Z,97494.91
2022-10-29T20:26:16.934Z,97502.34
2022-10-29T20:28:45.154Z,97503.13
2022-10-29T20:31:29.775Z,97500.13
2022-10-29T20:34:00.581Z,97494.75
2022-10-29T20:36:31.782Z,97494.09
2022-10-29T20:39:00.321Z,97501.03
2022-10-29T20:41:29.665Z,97500.81
2022-10-29T20:44:01.203Z,97497.78
2022-10-29T20:46:31.095Z,97494.00
2022-10-29T20:48:59.642Z,97502.69
2022-10-29T20:51:28.266Z,97500.50
2022-10-29T20:53:56.796Z,97499.81
2022-10-29T20:56:27.035Z,97506.50
2022-10-29T20:58:55.564Z,97509.94
2022-10-29T21:01:25.919Z,97506.53
2022-10-29T21:03:55.876Z,97508.59
2022-10-29T21:06:24.232Z,97505.41
2022-10-29T21:08:53.891Z,97501.69
2022-10-29T21:11:23.919Z,97506.81
2022-10-29T21:13:52.664Z,97509.66
2022-10-29T21:16:23.450Z,97513.50
2022-10-29T21:18:56.285Z,97508.19
2022-10-29T21:21:26.535Z,97494.50
2022-10-29T21:23:55.211Z,97508.00
2022-10-29T21:26:25.651Z,97506.03
2022-10-29T21:28:55.258Z,97499.34
2022-10-29T21:31:24.655Z,97498.84
2022-10-29T21:33:53.373Z,97501.91
2022-10-29T21:36:23.462Z,97501.91
2022-10-29T21:38:51.899Z,97503.47
2022-10-29T21:41:20.265Z,97498.94
2022-10-29T21:43:48.435Z,97500.03
2022-10-29T21:46:16.674Z,97508.38
2022-10-29T21:48:45.087Z,97498.94
2022-10-29T21:51:16.161Z,97501.50
2022-10-29T21:53:45.924Z,97507.38
2022-10-29T21:56:15.840Z,97508.06
2022-10-29T21:58:44.500Z,97513.28
2022-10-29T22:01:15.562Z,97515.63
2022-10-29T22:03:45.963Z,97507.41
2022-10-29T22:06:16.804Z,97508.88
2022-10-29T22:08:48.243Z,97507.69
2022-10-29T22:11:16.964Z,97508.19
2022-10-29T22:13:45.363Z,97510.16
2022-10-29T22:16:13.575Z,97509.16
2022-10-29T22:18:42.260Z,97506.59
2022-10-29T22:21:20.457Z,97513.78
2022-10-29T22:23:52.855Z,97511.00
2022-10-29T22:26:24.199Z,97512.00
2022-10-29T22:28:52.384Z,97511.38
2022-10-29T22:31:23.397Z,97513.66
2022-10-29T22:33:52.076Z,97512.28
2022-10-29T22:36:23.594Z,97507.34
2022-10-29T22:38:56.048Z,97502.28
2022-10-29T22:41:25.750Z,97498.94
2022-10-29T22:43:54.223Z,97494.41
2022-10-29T22:46:23.046Z,97500.41
2022-10-29T22:48:51.242Z,97500.22
2022-10-29T22:51:22.450Z,97496.28
2022-10-29T22:53:51.500Z,97491.66
2022-10-29T22:56:23.711Z,97484.03
2022-10-29T22:58:52.478Z,97488.91
2022-10-29T23:01:22.893Z,97489.47
2022-10-29T23:03:51.658Z,97475.63
2022-10-29T23:06:21.478Z,97477.44
2022-10-29T23:08:52.323Z,97464.91
2022-10-29T23:11:25.452Z,97472.25
2022-10-29T23:13:56.163Z,97474.84
2022-10-29T23:16:26.058Z,97477.31
2022-10-29T23:18:56.376Z,97476.22
2022-10-29T23:21:25.069Z,97483.66
2022-10-29T23:23:53.990Z,97479.84
2022-10-29T23:26:25.673Z,97478.81
2022-10-29T23:28:54.320Z,97468.28
2022-10-29T23:31:24.889Z,97474.44
2022-10-29T23:33:55.334Z,97471.25
2022-10-29T23:36:25.076Z,97481.03
2022-10-29T23:38:56.972Z,97484.66
2022-10-29T23:41:27.268Z,97479.78
2022-10-29T23:43:55.656Z,97476.28
2022-10-29T23:46:24.327Z,97478.50
2022-10-29T23:48:54.458Z,97480.53
2022-10-29T23:51:22.939Z,97479.31
2022-10-29T23:53:54.723Z,97469.13
2022-10-29T23:56:27.090Z,97471.81
2022-10-29T23:58:55.745Z,97483.97
